Latest Weather Observations for Tuggeranong

IDN60801

Issued at 7:03 pm EDT Tuesday 28 February 2017 (issued every 30 minutes, with the page automatically refreshed every 10 minutes)

About weather observations | Map of weather stations | Latest weather observations for NSW | Other Formats
Station Details ID: 070339 Name: TUGGERANONG (ISABELLA PLAINS) AWS Lat: -35.42 Lon: 149.09 Height: 586.7 m
Data from the previous 72 hours. | See also: Recent months at Tuggeranong
Date/Time
EDT
Temp
°C
App
Temp
°C
Dew
Point
°C
Rel
Hum
%
Delta-T
°C
Wind Press
QNH
hPa
Press
MSL
hPa
Rain since
9am
mm
Dir  Spd
km/h
Gust
km/h
Spd
kts
Gust
kts
28/07:00pm 22.8 20.5 14.6 60 5.0 NE 20 30 11 16 1023.0 1020.2 0.0
28/06:30pm 23.8 21.2 14.8 57 5.5 NE 22 33 12 18 1022.6 1019.9 0.0
28/06:00pm 25.7 23.3 13.9 48 7.1 ENE 19 30 10 16 1022.4 1019.7 0.0
28/05:30pm 26.1 24.4 13.6 46 7.6 ENE 15 26 8 14 1022.3 1019.6 0.0
28/05:00pm 26.4 24.0 12.8 43 8.1 ENE 17 26 9 14 1022.2 1019.5 0.0
28/04:30pm 27.3 26.0 12.5 40 8.8 NE 11 17 6 9 1022.2 1019.5 0.0
28/04:00pm 26.1 23.8 11.8 41 8.4 ENE 15 22 8 12 1022.5 1019.8 0.0
28/03:30pm 25.9 23.8 12.4 43 8.0 NE 15 24 8 13 1023.0 1020.2 0.0
28/03:00pm 26.0 24.3 13.5 46 7.5 ENE 15 24 8 13 1023.2 1020.5 0.0
28/02:30pm 26.2 24.1 12.3 42 8.2 E 15 28 8 15 1023.3 1020.6 0.0
28/02:00pm 25.7 24.2 11.8 42 8.1 ENE 11 20 6 11 1023.5 1020.8 0.0
28/01:30pm 25.1 22.9 12.0 44 7.7 E 15 20 8 11 1023.8 1021.1 0.0
28/01:00pm 24.8 23.8 12.4 46 7.3 NE 9 17 5 9 1024.2 1021.5 0.0
28/12:30pm 24.6 23.7 12.5 46 7.1 NE 9 17 5 9 1024.6 1022.0 0.0
28/12:00pm 24.5 23.1 12.1 46 7.2 SE 11 15 6 8 1024.9 1022.2 0.0
28/11:30am 23.9 22.7 12.8 49 6.6 NE 11 19 6 10 1025.3 1022.6 0.0
28/11:00am 23.3 23.1 12.9 52 6.1 ENE 6 9 3 5 1025.6 1022.9 0.0
28/10:30am 21.6 20.7 12.5 56 5.3 E 9 17 5 9 1025.8 1023.1 0.0
28/10:00am 20.9 20.2 12.1 57 5.0 SSE 7 15 4 8 1025.9 1023.2 0.0
28/09:30am 20.2 19.2 12.2 60 4.6 SW 9 11 5 6 1025.9 1023.2 0.0
28/09:00am 18.5 18.5 11.1 62 4.1 SW 2 6 1 3 1025.9 1023.2 0.0
28/08:30am 16.7 16.5 10.3 66 3.5 WSW 2 7 1 4 1026.0 1023.4 0.0
28/08:00am 14.7 14.6 9.5 71 2.7 CALM 0 0 0 0 1026.0 1023.4 0.0
28/07:30am 13.3 12.8 9.2 76 2.1 WNW 2 7 1 4 1025.8 1023.1 0.0
28/07:00am 12.3 12.0 8.6 78 1.9 CALM 0 6 0 3 1025.5 1022.8 0.0
28/06:30am 11.7 10.3 8.7 82 1.5 ESE 6 9 3 5 1025.2 1022.5 0.0
28/06:00am 11.3 9.6 8.2 81 1.6 WNW 7 9 4 5 1025.0 1022.3 0.0
28/05:30am 10.3 8.7 8.1 86 1.1 NNW 6 9 3 5 1024.5 1021.9 0.0
28/05:00am 10.6 9.8 8.2 85 1.2 N 2 7 1 4 1024.6 1022.0 0.0
28/04:30am 11.1 10.3 8.1 82 1.5 N 2 6 1 3 1024.8 1022.1 0.0
28/04:00am 11.2 10.8 8.2 82 1.5 CALM 0 0 0 0 1024.8 1022.1 0.0
28/03:30am 11.0 9.4 8.1 82 1.5 W 6 9 3 5 1025.2 1022.5 0.0
28/03:00am 10.4 9.8 7.6 83 1.4 CALM 0 0 0 0 1025.3 1022.6 0.0
28/02:30am 11.5 10.8 8.7 83 1.4 N 2 7 1 4 1025.5 1022.8 0.0
28/02:00am 11.4 11.1 8.6 83 1.4 CALM 0 0 0 0 1025.6 1022.9 0.0
28/01:30am 11.8 11.1 8.6 81 1.6 SSE 2 9 1 5 1026.1 1023.5 0.0
28/01:00am 12.8 12.7 9.3 79 1.8 CALM 0 0 0 0 1026.2 1023.6 0.0
28/12:30am 12.9 11.9 8.8 76 2.1 E 4 9 2 5 1026.1 1023.5 0.0
28/12:00am 13.8 12.8 9.0 73 2.5 SE 4 9 2 5 1026.2 1023.6 0.0
 
Date/Time
EDT
Temp
°C
App
Temp
°C
Dew
Point
°C
Rel
Hum
%
Delta-T
°C
Wind Press
QNH
hPa
Press
MSL
hPa
Rain since
9am
mm
Dir  Spd
km/h
Gust
km/h
Spd
kts
Gust
kts
27/11:30pm 14.2 13.6 9.0 71 2.7 ESE 2 9 1 5 1026.3 1023.7 0.0
27/11:00pm 16.6 15.2 9.5 63 3.8 E 7 9 4 5 1026.3 1023.7 0.0
27/10:30pm 16.8 15.7 10.0 64 3.7 ENE 6 9 3 5 1026.4 1023.8 0.0
27/10:00pm 17.9 15.9 10.3 61 4.2 ESE 11 20 6 11 1026.3 1023.7 0.0
27/09:30pm 18.3 15.7 10.7 61 4.2 ESE 15 20 8 11 1026.0 1023.4 0.0
27/09:00pm 18.5 16.2 10.6 60 4.4 ESE 13 17 7 9 1026.0 1023.4 0.0
27/08:30pm 19.4 16.4 10.7 57 4.9 ENE 17 28 9 15 1025.6 1022.9 0.0
27/08:00pm 20.2 17.1 10.3 53 5.5 ENE 17 22 9 12 1025.2 1022.5 0.0
27/07:30pm 21.0 17.7 10.8 52 5.7 ENE 19 32 10 17 1024.6 1022.0 0.0
27/07:00pm 22.1 18.4 10.3 47 6.6 E 20 32 11 17 1024.1 1021.4 0.0
27/06:30pm 22.9 19.2 10.0 44 7.2 E 20 32 11 17 1023.8 1021.1 0.0
27/06:00pm 23.7 20.5 10.0 42 7.7 ENE 17 28 9 15 1023.5 1020.8 0.0
27/05:30pm 24.4 20.8 10.7 42 7.8 E 20 30 11 16 1023.3 1020.6 0.0
27/05:00pm 24.6 21.4 10.1 40 8.2 E 17 28 9 15 1023.3 1020.6 0.0
27/04:30pm 25.9 23.2 10.5 38 8.8 ENE 15 22 8 12 1023.3 1020.6 0.0
27/04:00pm 25.9 23.9 10.1 37 9.0 ENE 11 28 6 15 1023.6 1020.9 0.0
27/03:30pm 24.9 23.8 10.8 41 8.1 SSW 7 13 4 7 1023.9 1021.2 0.0
27/03:00pm 24.2 23.7 12.5 48 6.9 WSW 7 13 4 7 1024.3 1021.6 0.0
27/02:30pm 23.2 22.7 11.9 49 6.6 NE 6 15 3 8 1024.9 1022.2 0.0
27/02:00pm 23.1 22.4 11.5 48 6.7 E 6 11 3 6 1025.3 1022.6 0.0
27/01:30pm 22.3 21.6 12.0 52 6.0 ENE 7 13 4 7 1025.7 1023.0 0.0
27/01:00pm 22.1 21.5 12.4 54 5.6 NE 7 15 4 8 1025.9 1023.2 0.0
27/12:30pm 21.4 21.0 12.5 57 5.2 NW 6 13 3 7 1026.2 1023.6 0.0
27/12:00pm 20.9 20.4 12.6 59 4.8 SW 7 11 4 6 1026.6 1023.9 0.0
27/11:30am 20.7 20.2 12.7 60 4.7 WSW 7 13 4 7 1026.9 1024.2 0.0
27/11:00am 20.1 19.1 12.3 61 4.5 SSW 9 15 5 8 1027.0 1024.3 0.0
27/10:30am 19.4 17.6 12.2 63 4.1 SW 13 17 7 9 1027.0 1024.3 0.0
27/10:00am 19.4 18.7 11.9 62 4.3 SW 7 13 4 7 1027.0 1024.3 0.0
27/09:30am 18.0 16.9 12.0 68 3.4 S 9 13 5 7 1027.1 1024.4 0.0
27/09:00am 17.3 15.4 11.8 70 3.1 SSW 13 20 7 11 1026.9 1024.2 0.0
27/08:30am 16.6 15.8 10.9 69 3.1 NNW 6 7 3 4 1026.7 1024.0 0.0
27/08:00am 15.4 15.5 10.2 71 2.8 CALM 0 0 0 0 1026.7 1024.0 0.0
27/07:30am 14.4 13.3 9.8 74 2.5 W 6 7 3 4 1026.1 1023.5 0.0
27/07:00am 13.9 13.9 9.7 76 2.2 CALM 0 0 0 0 1025.7 1023.0 0.0
27/06:30am 13.4 12.1 9.3 76 2.2 NW 6 7 3 4 1025.6 1022.9 0.0
27/06:00am 13.1 11.7 9.0 76 2.1 SW 6 9 3 5 1025.2 1022.5 0.0
27/05:30am 12.6 12.4 9.1 79 1.8 CALM 0 0 0 0 1024.9 1022.2 0.0
27/05:00am 12.5 11.9 8.8 78 1.9 S 2 13 1 7 1024.8 1022.1 0.0
27/04:30am 12.7 11.1 8.8 77 2.0 SW 7 11 4 6 1024.6 1022.0 0.0
27/04:00am 13.0 11.4 8.7 75 2.2 SE 7 17 4 9 1024.6 1022.0 0.0
27/03:30am 12.3 10.9 9.0 80 1.7 S 6 17 3 9 1024.9 1022.2 0.0
27/03:00am 10.4 9.8 7.6 83 1.4 CALM 0 6 0 3 1025.1 1022.4 0.0
27/02:30am 10.2 9.6 7.4 83 1.4 CALM 0 0 0 0 1025.2 1022.5 0.0
27/02:00am 10.8 10.4 8.2 84 1.3 CALM 0 0 0 0 1025.4 1022.7 0.0
27/01:30am 10.5 9.9 7.4 81 1.5 CALM 0 0 0 0 1025.4 1022.7 0.0
27/01:00am 11.3 10.7 7.6 78 1.8 CALM 0 0 0 0 1025.6 1022.9 0.0
27/12:30am 12.0 11.6 8.1 77 2.0 CALM 0 6 0 3 1025.8 1023.1 0.0
27/12:00am 11.8 11.2 7.5 75 2.1 CALM 0 0 0 0 1025.8 1023.1 0.0
 
Date/Time
EDT
Temp
°C
App
Temp
°C
Dew
Point
°C
Rel
Hum
%
Delta-T
°C
Wind Press
QNH
hPa
Press
MSL
hPa
Rain since
9am
mm
Dir  Spd
km/h
Gust
km/h
Spd
kts
Gust
kts
26/11:30pm 13.2 12.6 7.6 69 2.8 CALM 0 0 0 0 1026.1 1023.5 0.0
26/11:00pm 14.5 12.9 7.8 64 3.4 SSE 6 9 3 5 1026.2 1023.6 0.0
26/10:30pm 14.7 14.2 8.0 64 3.5 CALM 0 6 0 3 1026.2 1023.6 0.0
26/10:00pm 15.8 14.2 8.8 63 3.7 SE 7 13 4 7 1025.9 1023.2 0.0
26/09:30pm 16.0 12.9 9.0 63 3.7 ESE 15 24 8 13 1025.7 1023.0 0.0
26/09:00pm 16.3 13.6 9.0 62 3.9 E 13 20 7 11 1025.4 1022.7 0.0
26/08:30pm 16.6 14.4 9.3 62 3.9 E 11 20 6 11 1024.8 1022.1 0.0
26/08:00pm 17.4 15.2 9.3 59 4.3 ENE 11 20 6 11 1024.2 1021.5 0.0
26/07:30pm 18.4 14.7 9.5 56 4.8 ENE 19 30 10 16 1023.6 1020.9 0.0
26/07:00pm 19.5 15.4 10.0 54 5.2 ENE 22 32 12 17 1023.4 1020.7 0.0
26/06:30pm 20.7 16.8 9.3 48 6.2 E 20 32 11 17 1022.7 1020.0 0.0
26/06:00pm 21.5 17.6 9.4 46 6.6 ENE 20 28 11 15 1022.5 1019.8 0.0
26/05:30pm 22.1 18.7 9.3 44 7.1 E 17 24 9 13 1022.2 1019.5 0.0
26/05:00pm 22.6 19.3 9.4 43 7.3 E 17 28 9 15 1022.0 1019.3 0.0
26/04:30pm 23.2 19.4 9.2 41 7.8 ENE 19 26 10 14 1022.0 1019.3 0.0
26/04:00pm 22.8 19.1 8.1 39 7.9 E 17 26 9 14 1022.1 1019.4 0.0
26/03:30pm 23.4 19.9 8.7 39 8.1 NE 17 28 9 15 1022.2 1019.5 0.0
26/03:00pm 23.6 20.1 8.8 39 8.1 ENE 17 24 9 13 1022.6 1019.9 0.0
26/02:30pm 23.1 20.4 8.8 40 7.9 E 13 19 7 10 1022.7 1020.0 0.0
26/02:00pm 22.9 19.7 8.6 40 7.8 ENE 15 24 8 13 1022.9 1020.1 0.0
26/01:30pm 23.8 22.2 8.6 38 8.4 ENE 7 15 4 8 1023.1 1020.4 0.0
26/01:00pm 21.7 19.2 8.2 42 7.3 ENE 11 19 6 10 1023.8 1021.1 0.0
26/12:30pm 21.7 19.1 7.9 41 7.4 ESE 11 17 6 9 1024.0 1021.3 0.0
26/12:00pm 21.2 18.8 8.5 44 6.8 ENE 11 15 6 8 1024.3 1021.6 0.0
26/11:30am 20.4 17.9 8.1 45 6.6 SE 11 19 6 10 1024.5 1021.9 0.0
26/11:00am 20.4 18.0 8.7 47 6.3 E 11 17 6 9 1024.9 1022.2 0.0
26/10:30am 19.4 16.9 8.4 49 5.9 E 11 19 6 10 1025.1 1022.4 0.0
26/10:00am 18.6 15.4 8.3 51 5.4 ESE 15 26 8 14 1025.2 1022.5 0.0
26/09:30am 17.8 15.1 8.9 56 4.8 SSE 13 20 7 11 1025.3 1022.6 0.0
26/09:00am 16.4 13.2 8.4 59 4.2 ESE 15 24 8 13 1025.3 1022.6 0.0
26/08:30am 15.9 12.7 8.6 62 3.8 SSE 15 20 8 11 1025.1 1022.4 0.0
26/08:00am 13.4 11.5 9.1 75 2.2 SE 9 11 5 6 1025.0 1022.3 0.0
26/07:30am 11.3 10.1 8.2 81 1.6 E 4 9 2 5 1024.6 1022.0 0.0
26/07:00am 11.0 10.4 7.5 79 1.7 CALM 0 6 0 3 1024.2 1021.5 0.0
26/06:30am 11.4 10.4 7.3 76 2.0 E 2 7 1 4 1023.8 1021.1 0.0
26/06:00am 12.5 11.5 7.2 70 2.6 ENE 2 9 1 5 1023.6 1020.9 0.0
26/05:30am 13.7 10.8 8.1 69 2.9 SSE 13 20 7 11 1023.4 1020.7 0.0
26/05:00am 13.7 10.7 7.7 67 3.0 S 13 20 7 11 1023.1 1020.4 0.0
26/04:30am 13.4 11.2 6.3 62 3.5 SE 7 11 4 6 1023.0 1020.2 0.0
26/04:00am 14.1 11.6 6.7 61 3.7 SE 9 22 5 12 1022.9 1020.1 0.0
26/03:30am 13.9 11.8 6.7 62 3.6 SE 7 13 4 7 1022.9 1020.1 0.0
26/03:00am 14.5 12.2 7.5 63 3.6 SE 9 13 5 7 1023.1 1020.4 0.0
26/02:30am 14.9 11.3 8.4 65 3.4 SE 17 24 9 13 1023.4 1020.7 0.0
26/02:00am 15.5 12.7 10.1 70 2.9 ESE 15 22 8 12 1023.5 1020.8 0.0
26/01:30am 15.9 12.8 10.2 69 3.1 ESE 17 26 9 14 1023.5 1020.8 0.0
26/01:00am 16.2 14.0 10.7 70 3.0 ESE 13 24 7 13 1023.4 1020.7 0.0
26/12:30am 16.3 14.5 10.8 70 3.0 SE 11 15 6 8 1023.5 1020.8 0.0
26/12:00am 16.6 14.8 10.9 69 3.1 ESE 11 15 6 8 1023.3 1020.6 0.0
 
Date/Time
EDT
Temp
°C
App
Temp
°C
Dew
Point
°C
Rel
Hum
%
Delta-T
°C
Wind Press
QNH
hPa
Press
MSL
hPa
Rain since
9am
mm
Dir  Spd
km/h
Gust
km/h
Spd
kts
Gust
kts
25/11:30pm 17.0 15.2 10.8 67 3.4 ESE 11 19 6 10 1023.5 1020.8 0.0
25/11:00pm 17.0 14.8 10.8 67 3.4 ESE 13 20 7 11 1023.5 1020.8 0.0
25/10:30pm 17.0 14.9 11.1 68 3.3 SE 13 22 7 12 1023.3 1020.6 0.0
25/10:00pm 16.9 16.0 11.2 69 3.2 SE 7 11 4 6 1023.1 1020.4 0.0
25/09:30pm 17.1 16.2 11.4 69 3.2 SE 7 20 4 11 1023.2 1020.5 0.0
25/09:00pm 17.2 16.2 11.0 67 3.4 E 7 13 4 7 1022.6 1019.9 0.0
25/08:30pm 17.4 14.1 10.8 65 3.6 E 19 32 10 17 1022.4 1019.7 0.0
25/08:00pm 17.9 14.4 10.8 63 3.9 ESE 20 30 11 16 1021.9 1019.2 0.0
25/07:30pm 18.3 14.7 10.4 60 4.4 ESE 20 30 11 16 1021.5 1018.8 0.0

Other Formats:

Comma delimited format used in spreadsheet applications
http://www.bom.gov.au/fwo/IDN60801/IDN60801.94925.axf

JavaScript Object Notation format (JSON) in row-major order
http://www.bom.gov.au/fwo/IDN60801/IDN60801.94925.json